sensor_id;sensor_type;location;lat;lon;timestamp;pressure;altitude;pressure_sealevel;temperature;humidity
15487;BME280;7845;53.698;10.078;2023-04-03T00:01:04;103055.16;;;4.87;100.00
15487;BME280;7845;53.698;10.078;2023-04-03T00:03:30;103059.31;;;5.17;100.00
15487;BME280;7845;53.698;10.078;2023-04-03T00:05:56;103057.56;;;5.16;100.00
15487;BME280;7845;53.698;10.078;2023-04-03T00:08:21;103058.66;;;5.21;100.00
15487;BME280;7845;53.698;10.078;2023-04-03T00:10:47;103055.97;;;5.20;100.00
15487;BME280;7845;53.698;10.078;2023-04-03T00:13:13;103051.75;;;4.88;100.00
15487;BME280;7845;53.698;10.078;2023-04-03T00:15:40;103057.66;;;5.01;100.00
15487;BME280;7845;53.698;10.078;2023-04-03T00:18:06;103055.13;;;5.03;100.00
15487;BME280;7845;53.698;10.078;2023-04-03T00:20:32;103061.44;;;5.08;100.00
15487;BME280;7845;53.698;10.078;2023-04-03T00:22:59;103056.34;;;5.10;100.00
15487;BME280;7845;53.698;10.078;2023-04-03T00:25:29;103056.72;;;5.17;100.00
15487;BME280;7845;53.698;10.078;2023-04-03T00:27:54;103059.53;;;4.88;100.00
15487;BME280;7845;53.698;10.078;2023-04-03T00:30:21;103059.19;;;4.98;100.00
15487;BME280;7845;53.698;10.078;2023-04-03T00:32:51;103056.03;;;5.03;100.00
15487;BME280;7845;53.698;10.078;2023-04-03T00:35:20;103056.19;;;5.07;100.00
15487;BME280;7845;53.698;10.078;2023-04-03T00:37:58;103059.78;;;4.92;100.00
15487;BME280;7845;53.698;10.078;2023-04-03T00:40:42;103062.53;;;4.95;100.00
15487;BME280;7845;53.698;10.078;2023-04-03T00:43:27;103053.09;;;5.47;100.00
15487;BME280;7845;53.698;10.078;2023-04-03T00:45:55;103052.59;;;5.21;100.00
15487;BME280;7845;53.698;10.078;2023-04-03T00:48:33;103058.13;;;5.11;100.00
15487;BME280;7845;53.698;10.078;2023-04-03T00:51:02;103063.31;;;4.94;100.00
15487;BME280;7845;53.698;10.078;2023-04-03T00:53:54;103066.22;;;5.00;100.00
15487;BME280;7845;53.698;10.078;2023-04-03T00:56:23;103072.03;;;4.96;100.00
15487;BME280;7845;53.698;10.078;2023-04-03T00:59:07;103074.41;;;4.92;100.00
15487;BME280;7845;53.698;10.078;2023-04-03T01:01:36;103074.72;;;4.98;100.00
15487;BME280;7845;53.698;10.078;2023-04-03T01:04:25;103077.88;;;4.76;100.00
15487;BME280;7845;53.698;10.078;2023-04-03T01:06:58;103072.63;;;4.91;100.00
15487;BME280;7845;53.698;10.078;2023-04-03T01:09:25;103078.53;;;4.88;100.00
15487;BME280;7845;53.698;10.078;2023-04-03T01:12:11;103069.22;;;4.92;100.00
15487;BME280;7845;53.698;10.078;2023-04-03T01:14:37;103076.34;;;4.80;100.00
15487;BME280;7845;53.698;10.078;2023-04-03T01:23:12;103077.47;;;4.85;100.00
15487;BME280;7845;53.698;10.078;2023-04-03T01:25:55;103077.25;;;4.80;100.00
15487;BME280;7845;53.698;10.078;2023-04-03T01:28:32;103077.09;;;4.77;100.00
15487;BME280;7845;53.698;10.078;2023-04-03T01:31:31;103080.09;;;4.69;100.00
15487;BME280;7845;53.698;10.078;2023-04-03T01:33:59;103076.91;;;4.58;100.00
15487;BME280;7845;53.698;10.078;2023-04-03T01:36:31;103074.06;;;4.70;100.00
15487;BME280;7845;53.698;10.078;2023-04-03T01:38:58;103078.03;;;4.63;100.00
15487;BME280;7845;53.698;10.078;2023-04-03T01:41:26;103084.81;;;4.61;100.00
15487;BME280;7845;53.698;10.078;2023-04-03T01:43:52;103082.97;;;4.59;100.00
15487;BME280;7845;53.698;10.078;2023-04-03T01:46:18;103084.41;;;4.70;100.00
15487;BME280;7845;53.698;10.078;2023-04-03T01:48:43;103077.16;;;4.79;100.00
15487;BME280;7845;53.698;10.078;2023-04-03T01:51:10;103085.72;;;4.62;100.00
15487;BME280;7845;53.698;10.078;2023-04-03T01:53:37;103078.78;;;4.77;100.00
15487;BME280;7845;53.698;10.078;2023-04-03T01:56:03;103084.75;;;4.76;100.00
15487;BME280;7845;53.698;10.078;2023-04-03T01:58:32;103091.63;;;4.59;100.00
15487;BME280;7845;53.698;10.078;2023-04-03T02:00:57;103089.44;;;4.67;100.00
15487;BME280;7845;53.698;10.078;2023-04-03T02:03:25;103090.44;;;4.69;100.00
15487;BME280;7845;53.698;10.078;2023-04-03T02:05:54;103093.78;;;4.84;100.00
15487;BME280;7845;53.698;10.078;2023-04-03T02:08:19;103089.91;;;4.76;100.00
15487;BME280;7845;53.698;10.078;2023-04-03T02:10:52;103090.75;;;4.75;100.00
15487;BME280;7845;53.698;10.078;2023-04-03T02:13:18;103089.44;;;4.67;100.00
15487;BME280;7845;53.698;10.078;2023-04-03T02:15:45;103093.38;;;4.60;100.00
15487;BME280;7845;53.698;10.078;2023-04-03T02:18:16;103092.28;;;4.71;100.00
15487;BME280;7845;53.698;10.078;2023-04-03T02:20:46;103086.06;;;4.68;100.00
15487;BME280;7845;53.698;10.078;2023-04-03T02:23:14;103092.41;;;4.58;100.00
15487;BME280;7845;53.698;10.078;2023-04-03T02:25:39;103089.50;;;4.52;100.00
15487;BME280;7845;53.698;10.078;2023-04-03T02:28:05;103089.97;;;4.45;100.00
15487;BME280;7845;53.698;10.078;2023-04-03T02:30:37;103093.88;;;4.53;100.00
15487;BME280;7845;53.698;10.078;2023-04-03T02:33:02;103088.47;;;4.65;100.00
15487;BME280;7845;53.698;10.078;2023-04-03T02:35:28;103091.63;;;4.59;100.00
15487;BME280;7845;53.698;10.078;2023-04-03T02:37:56;103092.59;;;4.61;100.00
15487;BME280;7845;53.698;10.078;2023-04-03T02:40:22;103097.38;;;4.54;100.00
15487;BME280;7845;53.698;10.078;2023-04-03T02:42:48;103103.84;;;4.31;100.00
15487;BME280;7845;53.698;10.078;2023-04-03T02:45:13;103110.63;;;4.29;100.00
15487;BME280;7845;53.698;10.078;2023-04-03T02:47:39;103095.00;;;4.58;100.00
15487;BME280;7845;53.698;10.078;2023-04-03T02:50:10;103098.88;;;4.50;100.00
15487;BME280;7845;53.698;10.078;2023-04-03T02:52:39;103094.50;;;4.33;100.00
15487;BME280;7845;53.698;10.078;2023-04-03T02:55:05;103100.84;;;4.23;100.00
15487;BME280;7845;53.698;10.078;2023-04-03T02:57:30;103108.56;;;4.38;100.00
15487;BME280;7845;53.698;10.078;2023-04-03T02:59:57;103095.09;;;4.60;100.00
15487;BME280;7845;53.698;10.078;2023-04-03T03:02:23;103099.28;;;4.58;100.00
15487;BME280;7845;53.698;10.078;2023-04-03T03:04:50;103088.88;;;4.72;100.00
15487;BME280;7845;53.698;10.078;2023-04-03T03:07:18;103093.63;;;4.48;100.00
15487;BME280;7845;53.698;10.078;2023-04-03T03:09:44;103103.00;;;4.16;100.00
15487;BME280;7845;53.698;10.078;2023-04-03T03:12:09;103099.34;;;4.12;100.00
15487;BME280;7845;53.698;10.078;2023-04-03T03:14:35;103102.59;;;4.08;100.00
15487;BME280;7845;53.698;10.078;2023-04-03T03:17:01;103095.63;;;4.54;100.00
15487;BME280;7845;53.698;10.078;2023-04-03T03:19:32;103094.44;;;4.47;100.00
15487;BME280;7845;53.698;10.078;2023-04-03T03:22:02;103096.69;;;4.41;100.00
15487;BME280;7845;53.698;10.078;2023-04-03T03:24:27;103101.03;;;4.26;100.00
15487;BME280;7845;53.698;10.078;2023-04-03T03:26:53;103096.25;;;4.18;100.00
15487;BME280;7845;53.698;10.078;2023-04-03T03:29:18;103104.19;;;4.37;100.00
15487;BME280;7845;53.698;10.078;2023-04-03T03:31:46;103100.50;;;4.17;100.00
15487;BME280;7845;53.698;10.078;2023-04-03T03:34:11;103099.44;;;4.14;100.00
15487;BME280;7845;53.698;10.078;2023-04-03T03:36:41;103111.78;;;4.03;100.00
15487;BME280;7845;53.698;10.078;2023-04-03T03:39:08;103106.47;;;4.16;100.00
15487;BME280;7845;53.698;10.078;2023-04-03T03:41:42;103104.44;;;4.11;100.00
15487;BME280;7845;53.698;10.078;2023-04-03T03:44:08;103108.94;;;3.99;100.00
15487;BME280;7845;53.698;10.078;2023-04-03T03:46:33;103108.81;;;4.12;100.00
15487;BME280;7845;53.698;10.078;2023-04-03T03:49:00;103111.47;;;4.13;100.00
15487;BME280;7845;53.698;10.078;2023-04-03T03:51:26;103103.91;;;4.16;100.00
15487;BME280;7845;53.698;10.078;2023-04-03T03:53:57;103114.50;;;4.06;100.00
15487;BME280;7845;53.698;10.078;2023-04-03T03:56:26;103107.09;;;4.12;100.00
15487;BME280;7845;53.698;10.078;2023-04-03T03:58:51;103106.31;;;4.13;100.00
15487;BME280;7845;53.698;10.078;2023-04-03T04:01:26;103110.97;;;4.04;100.00
15487;BME280;7845;53.698;10.078;2023-04-03T04:03:52;103106.13;;;4.10;100.00
15487;BME280;7845;53.698;10.078;2023-04-03T04:06:22;103111.59;;;4.00;100.00
15487;BME280;7845;53.698;10.078;2023-04-03T04:08:47;103109.34;;;4.06;100.00
15487;BME280;7845;53.698;10.078;2023-04-03T04:11:13;103118.28;;;3.97;100.00
15487;BME280;7845;53.698;10.078;2023-04-03T04:13:47;103113.47;;;4.03;100.00
15487;BME280;7845;53.698;10.078;2023-04-03T04:16:12;103111.94;;;3.91;100.00
15487;BME280;7845;53.698;10.078;2023-04-03T04:18:38;103114.09;;;3.99;100.00
15487;BME280;7845;53.698;10.078;2023-04-03T04:21:03;103120.34;;;3.87;100.00
15487;BME280;7845;53.698;10.078;2023-04-03T04:23:28;103119.28;;;3.84;100.00
15487;BME280;7845;53.698;10.078;2023-04-03T04:26:00;103117.06;;;3.90;100.00
15487;BME280;7845;53.698;10.078;2023-04-03T04:28:26;103125.69;;;3.90;100.00
15487;BME280;7845;53.698;10.078;2023-04-03T04:31:02;103121.84;;;3.99;100.00
15487;BME280;7845;53.698;10.078;2023-04-03T04:33:27;103127.13;;;4.00;100.00
15487;BME280;7845;53.698;10.078;2023-04-03T04:35:54;103125.16;;;3.96;100.00
15487;BME280;7845;53.698;10.078;2023-04-03T04:38:20;103123.63;;;4.00;100.00
15487;BME280;7845;53.698;10.078;2023-04-03T04:40:47;103136.47;;;3.69;100.00
15487;BME280;7845;53.698;10.078;2023-04-03T04:43:16;103140.22;;;4.03;100.00
15487;BME280;7845;53.698;10.078;2023-04-03T04:45:44;103143.84;;;3.92;100.00
15487;BME280;7845;53.698;10.078;2023-04-03T04:48:10;103144.66;;;4.06;100.00
15487;BME280;7845;53.698;10.078;2023-04-03T04:50:38;103136.28;;;3.95;100.00
15487;BME280;7845;53.698;10.078;2023-04-03T04:53:03;103145.88;;;3.98;100.00
15487;BME280;7845;53.698;10.078;2023-04-03T04:55:29;103147.41;;;4.09;100.00
15487;BME280;7845;53.698;10.078;2023-04-03T04:57:55;103142.47;;;4.13;100.00
15487;BME280;7845;53.698;10.078;2023-04-03T05:00:22;103144.44;;;4.17;100.00
15487;BME280;7845;53.698;10.078;2023-04-03T05:02:47;103144.66;;;4.06;100.00
15487;BME280;7845;53.698;10.078;2023-04-03T05:05:14;103148.16;;;4.22;100.00
15487;BME280;7845;53.698;10.078;2023-04-03T05:07:41;103142.88;;;4.35;100.00
15487;BME280;7845;53.698;10.078;2023-04-03T05:10:07;103146.44;;;4.37;100.00
15487;BME280;7845;53.698;10.078;2023-04-03T05:12:37;103142.69;;;4.47;100.00
15487;BME280;7845;53.698;10.078;2023-04-03T05:15:02;103138.84;;;4.40;100.00
15487;BME280;7845;53.698;10.078;2023-04-03T05:17:29;103149.38;;;4.43;100.00
15487;BME280;7845;53.698;10.078;2023-04-03T05:20:01;103143.47;;;4.46;100.00
15487;BME280;7845;53.698;10.078;2023-04-03T05:22:29;103146.84;;;4.45;100.00
15487;BME280;7845;53.698;10.078;2023-04-03T05:24:56;103142.56;;;4.45;100.00
15487;BME280;7845;53.698;10.078;2023-04-03T05:27:21;103147.34;;;4.54;100.00
15487;BME280;7845;53.698;10.078;2023-04-03T05:29:52;103149.41;;;4.60;100.00
15487;BME280;7845;53.698;10.078;2023-04-03T05:32:18;103153.91;;;4.47;100.00
15487;BME280;7845;53.698;10.078;2023-04-03T05:34:43;103150.94;;;4.72;100.00
15487;BME280;7845;53.698;10.078;2023-04-03T05:37:08;103155.44;;;4.60;100.00
15487;BME280;7845;53.698;10.078;2023-04-03T05:39:34;103161.84;;;4.67;100.00
15487;BME280;7845;53.698;10.078;2023-04-03T05:42:00;103169.16;;;4.74;100.00
15487;BME280;7845;53.698;10.078;2023-04-03T05:44:25;103165.59;;;4.88;100.00
15487;BME280;7845;53.698;10.078;2023-04-03T05:46:51;103172.19;;;4.67;100.00
15487;BME280;7845;53.698;10.078;2023-04-03T05:49:17;103174.50;;;4.77;100.00
15487;BME280;7845;53.698;10.078;2023-04-03T05:51:43;103176.34;;;4.79;100.00
15487;BME280;7845;53.698;10.078;2023-04-03T05:54:25;103184.03;;;4.94;100.00
15487;BME280;7845;53.698;10.078;2023-04-03T05:56:53;103188.00;;;4.87;100.00
15487;BME280;7845;53.698;10.078;2023-04-03T05:59:19;103184.28;;;4.82;100.00
15487;BME280;7845;53.698;10.078;2023-04-03T06:01:45;103192.69;;;4.94;100.00
15487;BME280;7845;53.698;10.078;2023-04-03T06:04:11;103202.50;;;5.00;100.00
15487;BME280;7845;53.698;10.078;2023-04-03T06:06:44;103205.88;;;4.99;100.00
15487;BME280;7845;53.698;10.078;2023-04-03T06:09:10;103209.03;;;4.93;100.00
15487;BME280;7845;53.698;10.078;2023-04-03T06:11:36;103205.75;;;5.12;100.00
15487;BME280;7845;53.698;10.078;2023-04-03T06:14:09;103214.97;;;5.07;100.00
15487;BME280;7845;53.698;10.078;2023-04-03T06:16:39;103210.84;;;5.27;100.00
15487;BME280;7845;53.698;10.078;2023-04-03T06:19:06;103207.25;;;5.41;100.00
15487;BME280;7845;53.698;10.078;2023-04-03T06:21:32;103207.59;;;5.31;100.00
15487;BME280;7845;53.698;10.078;2023-04-03T06:23:58;103210.91;;;5.44;100.00
15487;BME280;7845;53.698;10.078;2023-04-03T06:26:25;103211.97;;;5.64;100.00
15487;BME280;7845;53.698;10.078;2023-04-03T06:28:53;103210.78;;;5.91;100.00
15487;BME280;7845;53.698;10.078;2023-04-03T06:31:19;103211.34;;;5.86;100.00
15487;BME280;7845;53.698;10.078;2023-04-03T06:33:45;103211.03;;;6.13;100.00
15487;BME280;7845;53.698;10.078;2023-04-03T06:36:12;103211.47;;;6.05;100.00
15487;BME280;7845;53.698;10.078;2023-04-03T06:38:38;103215.63;;;6.54;100.00
15487;BME280;7845;53.698;10.078;2023-04-03T06:41:04;103205.41;;;6.40;100.00
15487;BME280;7845;53.698;10.078;2023-04-03T06:43:29;103223.09;;;6.66;100.00
15487;BME280;7845;53.698;10.078;2023-04-03T06:45:56;103222.81;;;6.25;100.00
15487;BME280;7845;53.698;10.078;2023-04-03T06:48:21;103216.69;;;6.58;100.00
15487;BME280;7845;53.698;10.078;2023-04-03T06:50:47;103208.09;;;6.06;100.00
15487;BME280;7845;53.698;10.078;2023-04-03T06:53:12;103213.72;;;6.50;100.00
15487;BME280;7845;53.698;10.078;2023-04-03T06:55:37;103224.75;;;6.64;100.00
15487;BME280;7845;53.698;10.078;2023-04-03T06:58:03;103222.97;;;6.45;100.00
15487;BME280;7845;53.698;10.078;2023-04-03T07:00:29;103227.19;;;6.08;100.00
15487;BME280;7845;53.698;10.078;2023-04-03T07:02:55;103221.28;;;6.28;100.00
15487;BME280;7845;53.698;10.078;2023-04-03T07:05:22;103234.25;;;6.28;100.00
15487;BME280;7845;53.698;10.078;2023-04-03T07:07:48;103226.38;;;6.09;100.00
15487;BME280;7845;53.698;10.078;2023-04-03T07:10:15;103224.91;;;6.49;100.00
15487;BME280;7845;53.698;10.078;2023-04-03T07:12:41;103224.41;;;6.39;100.00
15487;BME280;7845;53.698;10.078;2023-04-03T07:15:06;103218.91;;;6.33;100.00
15487;BME280;7845;53.698;10.078;2023-04-03T07:17:32;103224.47;;;6.58;100.00
15487;BME280;7845;53.698;10.078;2023-04-03T07:19:58;103227.88;;;6.75;100.00
15487;BME280;7845;53.698;10.078;2023-04-03T07:22:23;103221.56;;;7.06;100.00
15487;BME280;7845;53.698;10.078;2023-04-03T07:24:48;103217.59;;;7.14;100.00
15487;BME280;7845;53.698;10.078;2023-04-03T07:27:14;103205.09;;;7.06;100.00
15487;BME280;7845;53.698;10.078;2023-04-03T07:29:40;103208.59;;;7.06;100.00
15487;BME280;7845;53.698;10.078;2023-04-03T07:32:06;103202.41;;;7.62;100.00
15487;BME280;7845;53.698;10.078;2023-04-03T07:34:32;103199.75;;;7.41;100.00
15487;BME280;7845;53.698;10.078;2023-04-03T07:36:57;103212.97;;;7.46;100.00
15487;BME280;7845;53.698;10.078;2023-04-03T07:39:23;103204.59;;;7.72;100.00
15487;BME280;7845;53.698;10.078;2023-04-03T07:41:50;103201.69;;;7.64;100.00
15487;BME280;7845;53.698;10.078;2023-04-03T07:44:16;103207.44;;;7.78;100.00
15487;BME280;7845;53.698;10.078;2023-04-03T07:46:43;103199.13;;;7.66;100.00
15487;BME280;7845;53.698;10.078;2023-04-03T07:49:09;103205.75;;;7.59;100.00
15487;BME280;7845;53.698;10.078;2023-04-03T07:51:34;103194.03;;;8.09;100.00
15487;BME280;7845;53.698;10.078;2023-04-03T07:54:01;103191.53;;;7.70;100.00
15487;BME280;7845;53.698;10.078;2023-04-03T07:56:27;103174.72;;;7.62;100.00
15487;BME280;7845;53.698;10.078;2023-04-03T07:58:53;103185.72;;;7.76;100.00
15487;BME280;7845;53.698;10.078;2023-04-03T08:01:18;103189.94;;;7.74;100.00
15487;BME280;7845;53.698;10.078;2023-04-03T08:03:44;103181.59;;;8.02;100.00
15487;BME280;7845;53.698;10.078;2023-04-03T08:06:09;103172.50;;;8.13;100.00
15487;BME280;7845;53.698;10.078;2023-04-03T08:08:35;103161.28;;;8.34;100.00
15487;BME280;7845;53.698;10.078;2023-04-03T08:11:01;103150.38;;;8.65;100.00
15487;BME280;7845;53.698;10.078;2023-04-03T08:13:30;103149.75;;;8.28;100.00
15487;BME280;7845;53.698;10.078;2023-04-03T08:15:55;103145.94;;;8.20;100.00
15487;BME280;7845;53.698;10.078;2023-04-03T08:18:25;103140.78;;;8.64;100.00
15487;BME280;7845;53.698;10.078;2023-04-03T08:20:52;103149.59;;;8.25;100.00
15487;BME280;7845;53.698;10.078;2023-04-03T08:23:18;103143.28;;;8.39;100.00
15487;BME280;7845;53.698;10.078;2023-04-03T08:25:45;103132.72;;;8.58;98.13
15487;BME280;7845;53.698;10.078;2023-04-03T08:28:11;103138.47;;;8.72;97.56
15487;BME280;7845;53.698;10.078;2023-04-03T08:30:39;103141.44;;;8.81;97.39
15487;BME280;7845;53.698;10.078;2023-04-03T08:33:05;103134.66;;;8.86;94.73
15487;BME280;7845;53.698;10.078;2023-04-03T08:35:31;103144.31;;;8.44;94.64
15487;BME280;7845;53.698;10.078;2023-04-03T08:37:57;103128.47;;;8.60;93.59
15487;BME280;7845;53.698;10.078;2023-04-03T08:40:24;103141.78;;;8.46;93.82
15487;BME280;7845;53.698;10.078;2023-04-03T08:48:30;103124.03;;;9.04;91.68
15487;BME280;7845;53.698;10.078;2023-04-03T08:50:59;103123.19;;;8.81;88.95
15487;BME280;7845;53.698;10.078;2023-04-03T08:53:29;103113.47;;;9.24;87.70
15487;BME280;7845;53.698;10.078;2023-04-03T08:55:58;103103.75;;;9.19;86.25
15487;BME280;7845;53.698;10.078;2023-04-03T08:58:28;103108.94;;;9.19;86.63
15487;BME280;7845;53.698;10.078;2023-04-03T09:01:05;103092.44;;;8.95;79.16
15487;BME280;7845;53.698;10.078;2023-04-03T09:03:32;103094.75;;;8.87;80.53
15487;BME280;7845;53.698;10.078;2023-04-03T09:11:21;103104.28;;;8.63;80.39
15487;BME280;7845;53.698;10.078;2023-04-03T09:14:01;103103.16;;;9.27;79.31
15487;BME280;7845;53.698;10.078;2023-04-03T09:16:49;103091.19;;;9.32;75.61
15487;BME280;7845;53.698;10.078;2023-04-03T09:19:27;103085.13;;;9.33;76.58
15487;BME280;7845;53.698;10.078;2023-04-03T09:22:41;103090.59;;;9.41;75.09
15487;BME280;7845;53.698;10.078;2023-04-03T09:24:47;103062.41;;;9.55;71.49
15487;BME280;7845;53.698;10.078;2023-04-03T09:27:15;103067.75;;;9.59;69.58
15487;BME280;7845;53.698;10.078;2023-04-03T09:29:44;103084.03;;;9.27;70.74
15487;BME280;7845;53.698;10.078;2023-04-03T09:32:33;103072.34;;;9.41;70.57
15487;BME280;7845;53.698;10.078;2023-04-03T09:35:47;103064.28;;;9.33;68.95
15487;BME280;7845;53.698;10.078;2023-04-03T09:37:50;103061.63;;;9.57;68.22
15487;BME280;7845;53.698;10.078;2023-04-03T09:42:55;103065.44;;;9.41;66.41
15487;BME280;7845;53.698;10.078;2023-04-03T09:45:33;103053.09;;;9.89;64.85
15487;BME280;7845;53.698;10.078;2023-04-03T09:48:19;103058.16;;;9.31;64.63
15487;BME280;7845;53.698;10.078;2023-04-03T09:50:57;103060.41;;;9.73;65.42
15487;BME280;7845;53.698;10.078;2023-04-03T09:53:30;103040.84;;;9.87;63.94
15487;BME280;7845;53.698;10.078;2023-04-03T09:55:57;103044.66;;;9.96;62.56
15487;BME280;7845;53.698;10.078;2023-04-03T09:58:25;103054.13;;;9.68;63.46
15487;BME280;7845;53.698;10.078;2023-04-03T10:01:01;103041.97;;;10.22;62.09
15487;BME280;7845;53.698;10.078;2023-04-03T10:03:32;103041.53;;;10.36;62.36
15487;BME280;7845;53.698;10.078;2023-04-03T10:05:58;103028.78;;;10.77;59.83
15487;BME280;7845;53.698;10.078;2023-04-03T10:11:14;103032.06;;;10.12;60.30
15487;BME280;7845;53.698;10.078;2023-04-03T10:13:58;103032.31;;;10.79;60.51
15487;BME280;7845;53.698;10.078;2023-04-03T10:16:30;103007.19;;;11.15;58.67
15487;BME280;7845;53.698;10.078;2023-04-03T10:19:51;103024.19;;;10.99;59.23
15487;BME280;7845;53.698;10.078;2023-04-03T10:22:08;103016.97;;;11.22;58.34
15487;BME280;7845;53.698;10.078;2023-04-03T10:24:52;103018.78;;;10.93;56.39
15487;BME280;7845;53.698;10.078;2023-04-03T10:27:29;103017.13;;;10.34;58.26
15487;BME280;7845;53.698;10.078;2023-04-03T10:32:44;103005.00;;;11.32;58.17
15487;BME280;7845;53.698;10.078;2023-04-03T10:35:37;103013.69;;;11.66;58.73
15487;BME280;7845;53.698;10.078;2023-04-03T10:38:27;103018.13;;;11.69;60.25
15487;BME280;7845;53.698;10.078;2023-04-03T10:41:07;103014.38;;;10.91;56.42
15487;BME280;7845;53.698;10.078;2023-04-03T10:46:36;103025.78;;;10.94;59.02
15487;BME280;7845;53.698;10.078;2023-04-03T10:51:54;103007.63;;;10.99;57.70
15487;BME280;7845;53.698;10.078;2023-04-03T10:54:26;103020.88;;;10.74;59.88
15487;BME280;7845;53.698;10.078;2023-04-03T10:57:01;103020.75;;;10.39;59.87
15487;BME280;7845;53.698;10.078;2023-04-03T11:02:06;103017.44;;;10.76;59.95
15487;BME280;7845;53.698;10.078;2023-04-03T11:04:36;103000.09;;;10.78;59.10
15487;BME280;7845;53.698;10.078;2023-04-03T11:07:28;102987.56;;;11.68;59.51
15487;BME280;7845;53.698;10.078;2023-04-03T11:10:02;102964.88;;;12.46;56.05
15487;BME280;7845;53.698;10.078;2023-04-03T11:12:49;102953.53;;;13.45;54.52
15487;BME280;7845;53.698;10.078;2023-04-03T11:15:18;102945.75;;;12.98;52.87
15487;BME280;7845;53.698;10.078;2023-04-03T11:17:56;102948.06;;;12.82;53.62
15487;BME280;7845;53.698;10.078;2023-04-03T11:20:31;102968.94;;;11.90;57.35
15487;BME280;7845;53.698;10.078;2023-04-03T11:23:22;102969.91;;;11.95;56.56
15487;BME280;7845;53.698;10.078;2023-04-03T11:25:52;102965.97;;;11.75;58.19
15487;BME280;7845;53.698;10.078;2023-04-03T11:28:19;102996.13;;;10.61;60.04
15487;BME280;7845;53.698;10.078;2023-04-03T11:36:38;102961.84;;;11.86;57.17
15487;BME280;7845;53.698;10.078;2023-04-03T11:39:31;102970.88;;;11.26;59.14
15487;BME280;7845;53.698;10.078;2023-04-03T11:45:24;102957.97;;;11.33;57.15
15487;BME280;7845;53.698;10.078;2023-04-03T11:47:58;102947.91;;;11.50;56.32
15487;BME280;7845;53.698;10.078;2023-04-03T12:03:29;102948.81;;;11.88;57.17
15487;BME280;7845;53.698;10.078;2023-04-03T12:26:40;102947.16;;;10.85;57.29
15487;BME280;7845;53.698;10.078;2023-04-03T12:29:33;102939.06;;;11.09;57.45
15487;BME280;7845;53.698;10.078;2023-04-03T12:38:05;102919.81;;;11.41;54.68
15487;BME280;7845;53.698;10.078;2023-04-03T12:46:03;102922.59;;;11.86;55.28
15487;BME280;7845;53.698;10.078;2023-04-03T12:48:37;102897.75;;;12.51;52.84
15487;BME280;7845;53.698;10.078;2023-04-03T12:51:03;102891.44;;;12.90;52.63
15487;BME280;7845;53.698;10.078;2023-04-03T12:53:32;102898.56;;;12.49;52.64
15487;BME280;7845;53.698;10.078;2023-04-03T12:56:27;102907.75;;;12.27;54.05
15487;BME280;7845;53.698;10.078;2023-04-03T12:58:55;102901.03;;;11.22;51.49
15487;BME280;7845;53.698;10.078;2023-04-03T13:01:24;102895.59;;;11.87;51.96
15487;BME280;7845;53.698;10.078;2023-04-03T13:03:54;102901.19;;;11.28;52.47
15487;BME280;7845;53.698;10.078;2023-04-03T13:06:23;102903.72;;;11.62;53.01
15487;BME280;7845;53.698;10.078;2023-04-03T13:08:53;102892.19;;;11.91;50.72
15487;BME280;7845;53.698;10.078;2023-04-03T13:11:20;102896.28;;;11.79;53.21
15487;BME280;7845;53.698;10.078;2023-04-03T13:14:00;102897.13;;;12.19;52.65
15487;BME280;7845;53.698;10.078;2023-04-03T13:16:29;102893.25;;;12.01;52.72
15487;BME280;7845;53.698;10.078;2023-04-03T13:18:54;102883.25;;;11.82;51.48
15487;BME280;7845;53.698;10.078;2023-04-03T13:21:26;102893.00;;;12.32;53.02
15487;BME280;7845;53.698;10.078;2023-04-03T13:23:57;102899.34;;;11.61;51.93
15487;BME280;7845;53.698;10.078;2023-04-03T13:26:26;102890.22;;;11.80;52.18
15487;BME280;7845;53.698;10.078;2023-04-03T13:28:54;102893.16;;;11.57;50.90
15487;BME280;7845;53.698;10.078;2023-04-03T13:31:23;102865.22;;;11.56;49.57
15487;BME280;7845;53.698;10.078;2023-04-03T13:33:55;102859.09;;;11.95;49.10
15487;BME280;7845;53.698;10.078;2023-04-03T13:36:29;102874.34;;;11.72;50.22
15487;BME280;7845;53.698;10.078;2023-04-03T13:39:26;102874.72;;;11.51;51.30
15487;BME280;7845;53.698;10.078;2023-04-03T13:42:21;102883.72;;;12.03;51.32
15487;BME280;7845;53.698;10.078;2023-04-03T13:44:42;102885.53;;;11.66;52.91
15487;BME280;7845;53.698;10.078;2023-04-03T13:49:40;102883.25;;;11.44;52.34
15487;BME280;7845;53.698;10.078;2023-04-03T13:52:24;102886.47;;;12.10;53.46
15487;BME280;7845;53.698;10.078;2023-04-03T13:54:55;102875.84;;;12.03;52.97
15487;BME280;7845;53.698;10.078;2023-04-03T13:57:20;102867.88;;;12.42;52.43
15487;BME280;7845;53.698;10.078;2023-04-03T13:59:46;102860.59;;;13.27;53.91
15487;BME280;7845;53.698;10.078;2023-04-03T14:02:21;102859.16;;;12.43;53.09
15487;BME280;7845;53.698;10.078;2023-04-03T14:04:54;102867.56;;;11.82;53.35
15487;BME280;7845;53.698;10.078;2023-04-03T14:07:27;102871.63;;;12.09;54.09
15487;BME280;7845;53.698;10.078;2023-04-03T14:09:54;102854.69;;;12.37;53.11
15487;BME280;7845;53.698;10.078;2023-04-03T14:12:30;102855.97;;;12.59;53.62
15487;BME280;7845;53.698;10.078;2023-04-03T14:14:56;102862.50;;;12.34;52.72
15487;BME280;7845;53.698;10.078;2023-04-03T14:17:24;102867.69;;;11.49;53.52
15487;BME280;7845;53.698;10.078;2023-04-03T14:19:51;102856.34;;;12.32;53.02
15487;BME280;7845;53.698;10.078;2023-04-03T14:22:20;102849.34;;;12.31;53.36
15487;BME280;7845;53.698;10.078;2023-04-03T14:24:48;102852.50;;;12.13;53.18
15487;BME280;7845;53.698;10.078;2023-04-03T14:27:27;102844.69;;;12.63;53.83
15487;BME280;7845;53.698;10.078;2023-04-03T14:29:55;102845.66;;;12.21;53.98
15487;BME280;7845;53.698;10.078;2023-04-03T14:32:25;102869.22;;;11.78;54.83
15487;BME280;7845;53.698;10.078;2023-04-03T14:34:52;102838.72;;;11.79;52.41